createdAt,value
2019-03-24T00:00:50.890Z,25.90
2019-03-24T00:10:57.454Z,23.65
2019-03-24T00:21:02.367Z,21.20
2019-03-24T00:31:07.501Z,18.70
2019-03-24T00:41:12.497Z,18.30
2019-03-24T00:51:17.502Z,16.65
2019-03-24T01:01:22.585Z,17.60
2019-03-24T01:11:27.600Z,18.00
2019-03-24T01:21:32.616Z,17.27
2019-03-24T01:31:37.779Z,18.10
2019-03-24T01:41:42.764Z,18.30
2019-03-24T01:51:47.771Z,17.60
2019-03-24T02:01:52.758Z,18.03
2019-03-24T02:11:57.761Z,17.40
2019-03-24T02:22:02.744Z,31.00
2019-03-24T02:32:07.736Z,21.83
2019-03-24T02:42:12.759Z,19.10
2019-03-24T02:52:17.728Z,19.27
2019-03-24T03:02:22.718Z,19.92
2019-03-24T03:12:28.020Z,19.00
2019-03-24T03:22:33.117Z,19.70
2019-03-24T03:32:38.211Z,21.40
2019-03-24T03:42:43.324Z,19.90
2019-03-24T03:52:48.302Z,19.43
2019-03-24T04:02:53.319Z,23.98
2019-03-24T04:12:58.695Z,19.20
2019-03-24T04:23:03.692Z,19.30
2019-03-24T04:33:09.615Z,19.50
2019-03-24T04:43:14.499Z,18.87
2019-03-24T04:53:20.754Z,21.93
2019-03-24T05:03:25.915Z,21.20
2019-03-24T05:13:30.915Z,20.97
2019-03-24T05:23:35.900Z,20.20
2019-03-24T05:33:41.002Z,19.93
2019-03-24T05:43:47.116Z,22.05
2019-03-24T05:53:52.029Z,23.27
2019-03-24T06:03:56.901Z,26.63
2019-03-24T06:14:01.800Z,24.65
2019-03-24T06:35:03.994Z,25.63
2019-03-24T06:45:10.025Z,26.03
2019-03-24T06:55:15.220Z,28.00
2019-03-24T07:05:20.343Z,25.68
2019-03-24T07:15:25.326Z,22.57
2019-03-24T07:25:30.414Z,21.95
2019-03-24T07:35:35.517Z,19.48
2019-03-24T07:45:42.135Z,15.17
2019-03-24T07:55:47.133Z,13.78
2019-03-24T08:05:52.310Z,9.58
2019-03-24T08:15:57.342Z,7.80
2019-03-24T08:26:02.331Z,13.50
2019-03-24T08:36:07.422Z,7.55
2019-03-24T08:46:12.406Z,8.10
2019-03-24T08:56:17.816Z,6.20
2019-03-24T09:06:22.914Z,8.05
2019-03-24T09:16:27.901Z,6.92
2019-03-24T09:26:32.891Z,7.50
2019-03-24T09:36:37.899Z,5.17
2019-03-24T09:46:42.929Z,5.60
2019-03-24T09:56:47.976Z,2.62
2019-03-24T10:06:52.976Z,3.90
2019-03-24T10:16:58.162Z,3.62
2019-03-24T10:27:03.270Z,4.42
2019-03-24T10:37:08.345Z,3.40
2019-03-24T10:47:13.555Z,3.55
2019-03-24T10:57:18.826Z,3.35
2019-03-24T11:07:23.867Z,4.10
2019-03-24T11:17:28.954Z,3.85
2019-03-24T11:27:33.991Z,3.12
2019-03-24T11:37:39.439Z,3.12
2019-03-24T11:47:44.534Z,4.20
2019-03-24T11:57:51.519Z,2.50
2019-03-24T12:07:56.585Z,2.55
2019-03-24T12:29:05.815Z,2.42
2019-03-24T12:39:10.943Z,2.70
2019-03-24T12:49:17.957Z,6.40
2019-03-24T12:59:23.067Z,6.25
2019-03-24T13:09:28.155Z,3.95
2019-03-24T13:19:33.083Z,4.42
2019-03-24T13:29:38.171Z,3.40
2019-03-24T13:39:43.549Z,2.65
2019-03-24T13:49:48.587Z,2.00
2019-03-24T13:59:53.605Z,4.65
2019-03-24T14:09:59.873Z,2.30
2019-03-24T14:20:07.142Z,2.72
2019-03-24T14:30:12.701Z,2.50
2019-03-24T14:40:18.104Z,2.22
2019-03-24T14:50:23.397Z,3.22
2019-03-24T15:00:36.474Z,4.17
2019-03-24T15:10:41.673Z,5.40
2019-03-24T15:20:46.991Z,2.22
2019-03-24T15:30:52.392Z,2.40
2019-03-24T15:40:57.986Z,15.20
2019-03-24T15:51:16.116Z,2.47
2019-03-24T16:01:12.703Z,2.52
2019-03-24T16:11:18.229Z,2.67
2019-03-24T16:21:28.078Z,5.27
2019-03-24T16:31:30.424Z,4.57
2019-03-24T16:41:35.965Z,15.80
2019-03-24T16:51:41.691Z,6.40
2019-03-24T17:01:47.197Z,4.60
2019-03-24T17:11:52.592Z,10.97
2019-03-24T17:21:57.856Z,12.77
2019-03-24T17:32:03.088Z,15.50
2019-03-24T17:42:08.380Z,19.77
2019-03-24T17:52:13.506Z,19.45
2019-03-24T18:02:18.710Z,34.73
2019-03-24T18:12:24.086Z,53.63
2019-03-24T18:22:29.365Z,10.80
2019-03-24T18:32:34.646Z,16.50
2019-03-24T18:42:40.101Z,20.23
2019-03-24T18:52:45.366Z,21.87
2019-03-24T19:02:50.712Z,39.20
2019-03-24T19:12:56.231Z,34.97
2019-03-24T19:23:01.451Z,34.20
2019-03-24T19:33:06.952Z,21.80
2019-03-24T19:43:12.489Z,23.77
2019-03-24T19:53:17.864Z,28.87
2019-03-24T20:13:41.041Z,43.00
2019-03-24T20:23:46.335Z,42.53
2019-03-24T20:33:51.741Z,87.17
2019-03-24T20:43:56.968Z,43.73
2019-03-24T20:54:02.455Z,63.63
2019-03-24T21:04:07.697Z,68.73
2019-03-24T21:14:13.132Z,60.20
2019-03-24T21:24:18.570Z,51.67
2019-03-24T21:34:23.896Z,41.67
2019-03-24T21:44:29.446Z,37.47
2019-03-24T21:54:34.437Z,38.33
2019-03-24T22:04:39.445Z,33.53
2019-03-24T22:14:44.425Z,37.17
2019-03-24T22:24:50.452Z,32.70
2019-03-24T22:34:55.451Z,30.40
2019-03-24T22:45:00.447Z,29.97
2019-03-24T22:55:07.237Z,25.53
2019-03-24T23:05:12.431Z,25.73
2019-03-24T23:15:17.354Z,25.80
2019-03-24T23:25:22.367Z,35.60
2019-03-24T23:35:27.350Z,31.20
2019-03-24T23:45:32.356Z,30.40
2019-03-24T23:55:37.335Z,27.63
